createdAt,value
2015-07-20T00:00:04.517Z,7.45
2015-07-20T00:00:16.876Z,7.49
2015-07-20T00:00:29.251Z,7.45
2015-07-20T00:00:41.582Z,7.48
2015-07-20T00:00:53.926Z,7.45
2015-07-20T00:01:06.270Z,7.41
2015-07-20T00:01:18.598Z,7.4
2015-07-20T00:01:30.942Z,7.48
2015-07-20T00:01:43.287Z,7.49
2015-07-20T00:01:55.616Z,7.49
2015-07-20T00:02:07.959Z,7.44
2015-07-20T00:02:20.303Z,7.41
2015-07-20T00:02:32.647Z,7.4
2015-07-20T00:02:44.976Z,7.51
2015-07-20T00:02:57.320Z,7.4
2015-07-20T00:03:09.663Z,7.4
2015-07-20T00:03:22.273Z,7.44
2015-07-20T00:03:34.617Z,7.4
2015-07-20T00:03:46.948Z,7.49
2015-07-20T00:03:58.604Z,7.45
2015-07-20T00:04:10.948Z,7.51
2015-07-20T00:04:23.166Z,7.47
2015-07-20T00:04:35.510Z,7.4
2015-07-20T00:04:47.886Z,7.48
2015-07-20T00:05:00.261Z,7.41
2015-07-20T00:05:12.636Z,7.37
2015-07-20T00:05:24.980Z,7.4
2015-07-20T00:05:37.355Z,7.47
2015-07-20T00:05:49.717Z,7.44
2015-07-20T00:06:02.092Z,7.48
2015-07-20T00:06:14.420Z,7.41
2015-07-20T00:06:26.764Z,7.47
2015-07-20T00:06:39.092Z,7.48
2015-07-20T00:06:51.437Z,7.49
2015-07-20T00:07:03.781Z,7.39
2015-07-20T00:07:16.125Z,7.41
2015-07-20T00:07:28.453Z,7.45
2015-07-20T00:07:40.796Z,7.4
2015-07-20T00:07:53.143Z,7.47
2015-07-20T00:08:05.487Z,7.37
2015-07-20T00:08:17.831Z,7.48
2015-07-20T00:08:30.174Z,7.45
2015-07-20T00:08:42.503Z,7.47
2015-07-20T00:08:54.847Z,7.49
2015-07-20T00:09:07.191Z,7.49
2015-07-20T00:09:19.519Z,7.39
2015-07-20T00:09:31.863Z,7.4
2015-07-20T00:09:44.222Z,7.47
2015-07-20T00:09:56.568Z,7.44
2015-07-20T00:10:08.927Z,7.37
2015-07-20T00:10:21.287Z,7.45
2015-07-20T00:10:32.943Z,7.41
2015-07-20T00:10:45.318Z,7.41
2015-07-20T00:10:57.679Z,7.41
2015-07-20T00:11:10.054Z,7.41
2015-07-20T00:11:22.429Z,7.44
2015-07-20T00:11:34.789Z,7.47
2015-07-20T00:11:47.164Z,7.39
2015-07-20T00:11:59.494Z,7.39
2015-07-20T00:12:11.838Z,7.4
2015-07-20T00:12:24.166Z,7.41
2015-07-20T00:12:36.494Z,7.49
2015-07-20T00:12:48.838Z,7.39
2015-07-20T00:13:01.168Z,7.41
2015-07-20T00:13:13.496Z,7.44
2015-07-20T00:13:25.840Z,7.37
2015-07-20T00:13:38.199Z,7.39
2015-07-20T00:13:50.543Z,7.39
2015-07-20T00:14:02.889Z,7.4
2015-07-20T00:14:15.217Z,7.37
2015-07-20T00:14:27.560Z,7.37
2015-07-20T00:14:39.904Z,7.39
2015-07-20T00:14:52.250Z,7.44
2015-07-20T00:15:04.594Z,7.45
2015-07-20T00:15:16.937Z,7.37
2015-07-20T00:15:29.281Z,7.45
2015-07-20T00:15:41.625Z,7.36
2015-07-20T00:15:53.970Z,7.44
2015-07-20T00:16:06.329Z,7.41
2015-07-20T00:16:17.985Z,7.34
2015-07-20T00:16:30.360Z,7.41
2015-07-20T00:16:42.720Z,7.34
2015-07-20T00:16:55.097Z,7.44
2015-07-20T00:17:07.487Z,7.39
2015-07-20T00:17:19.847Z,7.34
2015-07-20T00:17:32.206Z,7.37
2015-07-20T00:17:44.534Z,7.45
2015-07-20T00:17:56.865Z,7.31
2015-07-20T00:18:09.209Z,7.4
2015-07-20T00:18:21.553Z,7.37
2015-07-20T00:18:33.881Z,7.31
2015-07-20T00:18:45.506Z,7.39
2015-07-20T00:18:57.851Z,7.44
2015-07-20T00:19:10.194Z,7.36
2015-07-20T00:19:22.538Z,7.4
2015-07-20T00:19:34.882Z,7.39
2015-07-20T00:19:47.226Z,7.37
2015-07-20T00:19:59.556Z,7.3
2015-07-20T00:20:11.915Z,7.33
2015-07-20T00:20:24.259Z,7.37
2015-07-20T00:20:36.603Z,7.29
2015-07-20T00:20:48.931Z,7.37
2015-07-20T00:21:00.574Z,7.4
2015-07-20T00:21:12.918Z,7.37
2015-07-20T00:21:25.262Z,7.33
2015-07-20T00:21:37.606Z,7.36
2015-07-20T00:21:49.965Z,7.39
2015-07-20T00:22:02.325Z,7.37
2015-07-20T00:22:14.700Z,7.3
2015-07-20T00:22:27.060Z,7.29
2015-07-20T00:22:39.419Z,7.4
2015-07-20T00:22:51.779Z,7.34
2015-07-20T00:23:04.141Z,7.39
2015-07-20T00:23:16.485Z,7.34
2015-07-20T00:23:28.813Z,7.36
2015-07-20T00:23:41.157Z,7.36
2015-07-20T00:23:53.485Z,7.4
2015-07-20T00:24:05.815Z,7.37
2015-07-20T00:24:18.159Z,7.34
2015-07-20T00:24:30.502Z,7.41
2015-07-20T00:24:42.830Z,7.31
2015-07-20T00:24:55.174Z,7.33
2015-07-20T00:25:07.535Z,7.37
2015-07-20T00:25:19.878Z,7.39
2015-07-20T00:25:32.222Z,7.41
2015-07-20T00:25:44.550Z,7.37
2015-07-20T00:25:56.910Z,7.37
2015-07-20T00:26:09.241Z,7.34
2015-07-20T00:26:21.584Z,7.31
2015-07-20T00:26:33.913Z,7.37
2015-07-20T00:26:46.256Z,7.33
2015-07-20T00:26:57.881Z,7.36
2015-07-20T00:27:10.227Z,7.4
2015-07-20T00:27:22.836Z,7.31
2015-07-20T00:27:35.211Z,7.34
2015-07-20T00:27:47.571Z,7.36
2015-07-20T00:27:59.946Z,7.37
2015-07-20T00:28:12.291Z,7.39
2015-07-20T00:28:24.666Z,7.37
2015-07-20T00:28:37.025Z,7.29
2015-07-20T00:28:49.384Z,7.39
2015-07-20T00:29:01.712Z,7.36
2015-07-20T00:29:14.058Z,7.31
2015-07-20T00:29:24.980Z,7.37
2015-07-20T00:29:37.308Z,7.31
2015-07-20T00:29:49.652Z,7.37
2015-07-20T00:30:01.996Z,7.29
2015-07-20T00:30:14.341Z,7.39
2015-07-20T00:30:26.685Z,7.34
2015-07-20T00:30:39.013Z,7.39
2015-07-20T00:30:51.357Z,7.45
2015-07-20T00:31:03.701Z,7.31
2015-07-20T00:31:15.328Z,7.37
2015-07-20T00:31:27.656Z,7.36
2015-07-20T00:31:39.984Z,7.41
2015-07-20T00:31:52.328Z,7.4
2015-07-20T00:32:04.672Z,7.44
2015-07-20T00:32:17.034Z,7.31
2015-07-20T00:32:29.378Z,7.36
2015-07-20T00:32:41.721Z,7.4
2015-07-20T00:32:54.065Z,7.37
2015-07-20T00:33:06.425Z,7.31
2015-07-20T00:33:18.785Z,7.39
2015-07-20T00:33:31.160Z,7.33
2015-07-20T00:33:43.519Z,7.34
2015-07-20T00:33:55.879Z,7.3
2015-07-20T00:34:08.269Z,7.29
2015-07-20T00:34:20.615Z,7.37
2015-07-20T00:34:32.943Z,7.41
2015-07-20T00:34:45.287Z,7.37
2015-07-20T00:34:57.615Z,7.4
2015-07-20T00:35:09.974Z,7.33
2015-07-20T00:35:22.321Z,7.39
2015-07-20T00:35:33.946Z,7.4
2015-07-20T00:35:46.290Z,7.37
2015-07-20T00:35:58.634Z,7.39
2015-07-20T00:36:10.993Z,7.34
2015-07-20T00:36:23.338Z,7.33
2015-07-20T00:36:35.682Z,7.39
2015-07-20T00:36:48.010Z,7.39
2015-07-20T00:37:00.353Z,7.37
2015-07-20T00:37:12.682Z,7.41
2015-07-20T00:37:25.012Z,7.37
2015-07-20T00:37:37.355Z,7.34
2015-07-20T00:37:49.699Z,7.37
2015-07-20T00:38:02.059Z,7.4
2015-07-20T00:38:14.418Z,7.39
2015-07-20T00:38:26.764Z,7.37
2015-07-20T00:38:39.154Z,7.4
2015-07-20T00:38:51.514Z,7.37
2015-07-20T00:39:03.889Z,7.36
2015-07-20T00:39:16.248Z,7.36
2015-07-20T00:39:28.625Z,7.36
2015-07-20T00:39:40.984Z,7.39
2015-07-20T00:39:53.344Z,7.39
2015-07-20T00:40:05.703Z,7.31
2015-07-20T00:40:18.031Z,7.34
2015-07-20T00:40:30.377Z,7.34
2015-07-20T00:40:42.721Z,7.34
2015-07-20T00:40:55.049Z,7.34
2015-07-20T00:41:07.393Z,7.34
2015-07-20T00:41:19.736Z,7.31
2015-07-20T00:41:32.081Z,7.29
2015-07-20T00:41:44.409Z,7.44
2015-07-20T00:41:56.753Z,7.37
2015-07-20T00:42:09.081Z,7.3
2015-07-20T00:42:21.441Z,7.34
2015-07-20T00:42:33.787Z,7.39
2015-07-20T00:42:45.444Z,7.33
2015-07-20T00:42:57.787Z,7.3
2015-07-20T00:43:10.131Z,7.39
2015-07-20T00:43:22.475Z,7.37
2015-07-20T00:43:34.117Z,7.31
2015-07-20T00:43:46.477Z,7.31
2015-07-20T00:43:58.821Z,7.36
2015-07-20T00:44:11.164Z,7.33
2015-07-20T00:44:23.524Z,7.36
2015-07-20T00:44:35.885Z,7.34
2015-07-20T00:44:48.260Z,7.31
2015-07-20T00:45:00.635Z,7.37
2015-07-20T00:45:12.994Z,7.3
2015-07-20T00:45:25.369Z,7.39
2015-07-20T00:45:37.714Z,7.29
2015-07-20T00:45:50.058Z,7.36
2015-07-20T00:46:02.386Z,7.33
2015-07-20T00:46:14.730Z,7.41
2015-07-20T00:46:27.058Z,7.34
2015-07-20T00:46:39.389Z,7.37
2015-07-20T00:46:51.733Z,7.34
2015-07-20T00:47:04.077Z,7.31
2015-07-20T00:47:16.420Z,7.37
2015-07-20T00:47:28.748Z,7.3
2015-07-20T00:47:41.093Z,7.34
2015-07-20T00:47:53.421Z,7.33
2015-07-20T00:48:05.765Z,7.33
2015-07-20T00:48:18.374Z,7.36
2015-07-20T00:48:29.999Z,7.37
2015-07-20T00:48:42.331Z,7.3
2015-07-20T00:48:54.674Z,7.34
2015-07-20T00:49:07.018Z,7.33
2015-07-20T00:49:19.377Z,7.3
2015-07-20T00:49:31.737Z,7.36
2015-07-20T00:49:43.379Z,7.41
2015-07-20T00:49:55.754Z,7.31
2015-07-20T00:50:08.114Z,7.33
2015-07-20T00:50:20.489Z,7.4
2015-07-20T00:50:32.864Z,7.3
2015-07-20T00:50:45.225Z,7.36
2015-07-20T00:50:57.585Z,7.34
2015-07-20T00:51:09.960Z,7.37
2015-07-20T00:51:22.288Z,7.37
2015-07-20T00:51:34.631Z,7.37
2015-07-20T00:51:46.977Z,7.33
2015-07-20T00:51:59.305Z,7.37
2015-07-20T00:52:11.649Z,7.33
2015-07-20T00:52:24.008Z,7.37
2015-07-20T00:52:36.352Z,7.39
2015-07-20T00:52:48.698Z,7.37
2015-07-20T00:53:01.026Z,7.37
2015-07-20T00:53:13.370Z,7.27
2015-07-20T00:53:25.714Z,7.3
2015-07-20T00:53:38.042Z,7.36
2015-07-20T00:53:50.403Z,7.33
2015-07-20T00:54:02.731Z,7.37
2015-07-20T00:54:15.075Z,7.26
2015-07-20T00:54:27.419Z,7.31
2015-07-20T00:54:39.778Z,7.29
2015-07-20T00:54:51.967Z,7.37
2015-07-20T00:55:04.326Z,7.31
2015-07-20T00:55:16.685Z,7.31
2015-07-20T00:55:29.045Z,7.37
2015-07-20T00:55:41.420Z,7.31
2015-07-20T00:55:53.782Z,7.33
2015-07-20T00:56:06.157Z,7.23
2015-07-20T00:56:18.532Z,7.33
2015-07-20T00:56:30.907Z,7.29
2015-07-20T00:56:43.266Z,7.33
2015-07-20T00:56:55.597Z,7.34
2015-07-20T00:57:07.956Z,7.29
2015-07-20T00:57:20.300Z,7.29
2015-07-20T00:57:32.628Z,7.37
2015-07-20T00:57:44.972Z,7.37
2015-07-20T00:57:57.316Z,7.3
2015-07-20T00:58:09.660Z,7.36
2015-07-20T00:58:22.004Z,7.34
2015-07-20T00:58:34.348Z,7.27
2015-07-20T00:58:46.691Z,7.36
2015-07-20T00:58:59.037Z,7.33
2015-07-20T00:59:11.381Z,7.26
2015-07-20T00:59:23.725Z,7.37
2015-07-20T00:59:36.068Z,7.33
2015-07-20T00:59:48.415Z,7.31
2015-07-20T01:00:00.759Z,7.26
2015-07-20T01:00:13.087Z,7.27
2015-07-20T01:00:25.446Z,7.4
2015-07-20T01:00:37.774Z,7.33
2015-07-20T01:00:50.119Z,7.33
2015-07-20T01:01:02.479Z,7.29
2015-07-20T01:01:14.838Z,7.3
2015-07-20T01:01:27.197Z,7.37
2015-07-20T01:01:39.557Z,7.36
2015-07-20T01:01:51.934Z,7.3
2015-07-20T01:02:04.309Z,7.33
2015-07-20T01:02:16.684Z,7.33
2015-07-20T01:02:29.059Z,7.3
2015-07-20T01:02:41.387Z,7.34
2015-07-20T01:02:53.733Z,7.29
2015-07-20T01:03:06.076Z,7.27
2015-07-20T01:03:18.404Z,7.36
2015-07-20T01:03:30.748Z,7.36
2015-07-20T01:03:43.092Z,7.39
2015-07-20T01:03:55.422Z,7.34
2015-07-20T01:04:07.766Z,7.36
2015-07-20T01:04:20.110Z,7.36
2015-07-20T01:04:32.453Z,7.36
2015-07-20T01:04:44.781Z,7.34
2015-07-20T01:04:57.127Z,7.34
2015-07-20T01:05:09.487Z,7.3
2015-07-20T01:05:21.815Z,7.34
2015-07-20T01:05:34.158Z,7.29
2015-07-20T01:05:46.502Z,7.41
2015-07-20T01:05:58.848Z,7.34
2015-07-20T01:06:10.489Z,7.4
2015-07-20T01:06:22.832Z,7.37
2015-07-20T01:06:35.176Z,7.36
2015-07-20T01:06:47.551Z,7.34
2015-07-20T01:06:59.928Z,7.36
2015-07-20T01:07:12.303Z,7.37
2015-07-20T01:07:24.662Z,7.3
2015-07-20T01:07:37.022Z,7.37
2015-07-20T01:07:49.397Z,7.34
2015-07-20T01:08:01.805Z,7.37
2015-07-20T01:08:14.133Z,7.37
2015-07-20T01:08:26.461Z,7.4
2015-07-20T01:08:38.789Z,7.3
2015-07-20T01:08:50.414Z,7.33
2015-07-20T01:09:02.759Z,7.27
2015-07-20T01:09:15.103Z,7.33
2015-07-20T01:09:27.431Z,7.26
2015-07-20T01:09:39.759Z,7.34
2015-07-20T01:09:52.087Z,7.36
2015-07-20T01:10:04.434Z,7.33
2015-07-20T01:10:16.762Z,7.37
2015-07-20T01:10:29.106Z,7.36
2015-07-20T01:10:41.434Z,7.33
2015-07-20T01:10:53.762Z,7.36
2015-07-20T01:11:06.108Z,7.4
2015-07-20T01:11:18.452Z,7.31
2015-07-20T01:11:30.795Z,7.33
2015-07-20T01:11:43.139Z,7.34
2015-07-20T01:11:55.483Z,7.37
2015-07-20T01:12:08.110Z,7.3
2015-07-20T01:12:20.469Z,7.33
2015-07-20T01:12:32.844Z,7.37
2015-07-20T01:12:45.204Z,7.3
2015-07-20T01:12:57.579Z,7.39
2015-07-20T01:13:09.940Z,7.37
2015-07-20T01:13:22.315Z,7.36
2015-07-20T01:13:34.674Z,7.44
2015-07-20T01:13:47.034Z,7.3
2015-07-20T01:13:59.393Z,7.36
2015-07-20T01:14:11.739Z,7.4
2015-07-20T01:14:24.067Z,7.39
2015-07-20T01:14:36.411Z,7.36
2015-07-20T01:14:48.755Z,7.34
2015-07-20T01:15:01.083Z,7.31
2015-07-20T01:15:13.427Z,7.31
2015-07-20T01:15:25.756Z,7.36
2015-07-20T01:15:38.084Z,7.36
2015-07-20T01:15:50.443Z,7.34
2015-07-20T01:16:02.787Z,7.39
2015-07-20T01:16:15.133Z,7.33
2015-07-20T01:16:27.476Z,7.4
2015-07-20T01:16:39.820Z,7.37
2015-07-20T01:16:52.164Z,7.37
2015-07-20T01:17:04.508Z,7.27
2015-07-20T01:17:16.853Z,7.39
2015-07-20T01:17:29.213Z,7.36
2015-07-20T01:17:41.556Z,7.33
2015-07-20T01:17:53.900Z,7.36
2015-07-20T01:18:06.260Z,7.33
2015-07-20T01:18:18.622Z,7.37
2015-07-20T01:18:30.981Z,7.34
2015-07-20T01:18:43.341Z,7.36
2015-07-20T01:18:55.716Z,7.37
2015-07-20T01:19:08.091Z,7.3
2015-07-20T01:19:20.436Z,7.34
2015-07-20T01:19:32.765Z,7.27
2015-07-20T01:19:45.108Z,7.37
2015-07-20T01:19:57.436Z,7.3
2015-07-20T01:20:09.796Z,7.3
2015-07-20T01:20:22.142Z,7.31
2015-07-20T01:20:34.470Z,7.27
2015-07-20T01:20:46.813Z,7.27
2015-07-20T01:20:59.157Z,7.37
2015-07-20T01:21:11.485Z,7.37
2015-07-20T01:21:23.831Z,7.34
2015-07-20T01:21:36.159Z,7.4
2015-07-20T01:21:47.800Z,7.34
2015-07-20T01:22:00.128Z,7.36
2015-07-20T01:22:12.472Z,7.3
2015-07-20T01:22:24.816Z,7.33
2015-07-20T01:22:37.176Z,7.33
2015-07-20T01:22:49.520Z,7.37
2015-07-20T01:23:01.879Z,7.34
2015-07-20T01:23:14.223Z,7.39
2015-07-20T01:23:26.616Z,7.3
2015-07-20T01:23:38.991Z,7.36
2015-07-20T01:23:51.351Z,7.37
2015-07-20T01:24:03.710Z,7.23
2015-07-20T01:24:16.069Z,7.37
2015-07-20T01:24:28.446Z,7.3
2015-07-20T01:24:40.821Z,7.34
2015-07-20T01:24:53.165Z,7.29
2015-07-20T01:25:05.525Z,7.4
2015-07-20T01:25:17.853Z,7.31
2015-07-20T01:25:30.197Z,7.36
2015-07-20T01:25:41.822Z,7.36
2015-07-20T01:25:54.166Z,7.37
2015-07-20T01:26:06.510Z,7.3
2015-07-20T01:26:18.135Z,7.33
2015-07-20T01:26:30.482Z,7.3
2015-07-20T01:26:42.810Z,7.37
2015-07-20T01:26:55.169Z,7.29
2015-07-20T01:27:07.497Z,7.37
2015-07-20T01:27:19.841Z,7.3
2015-07-20T01:27:32.201Z,7.34
2015-07-20T01:27:43.842Z,7.33
2015-07-20T01:27:56.170Z,7.29
2015-07-20T01:28:08.514Z,7.37
2015-07-20T01:28:20.873Z,7.29
2015-07-20T01:28:33.219Z,7.34
2015-07-20T01:28:45.563Z,7.33
2015-07-20T01:28:57.922Z,7.37
2015-07-20T01:29:10.266Z,7.3
2015-07-20T01:29:22.625Z,7.29
2015-07-20T01:29:34.988Z,7.26
2015-07-20T01:29:47.363Z,7.29
2015-07-20T01:29:59.035Z,7.29
2015-07-20T01:30:11.394Z,7.19
2015-07-20T01:30:23.738Z,7.26
2015-07-20T01:30:36.083Z,7.26
2015-07-20T01:30:48.427Z,7.23
2015-07-20T01:31:00.755Z,7.23
2015-07-20T01:31:13.099Z,7.34
2015-07-20T01:31:25.443Z,7.26
2015-07-20T01:31:37.772Z,7.26
2015-07-20T01:31:50.100Z,7.31
2015-07-20T01:32:02.444Z,7.27
2015-07-20T01:32:14.772Z,7.26
2015-07-20T01:32:27.116Z,7.34
2015-07-20T01:32:39.446Z,7.27
2015-07-20T01:32:51.790Z,7.37
2015-07-20T01:33:04.149Z,7.29
2015-07-20T01:33:16.477Z,7.34
2015-07-20T01:33:28.821Z,7.23
2015-07-20T01:33:41.151Z,7.3
2015-07-20T01:33:53.495Z,7.22
2015-07-20T01:34:05.838Z,7.26
2015-07-20T01:34:18.198Z,7.31
2015-07-20T01:34:30.542Z,7.26
2015-07-20T01:34:42.903Z,7.26
2015-07-20T01:34:55.278Z,7.29
2015-07-20T01:35:07.637Z,7.22
2015-07-20T01:35:20.012Z,7.23
2015-07-20T01:35:32.372Z,7.26
2015-07-20T01:35:44.717Z,7.26
2015-07-20T01:35:57.061Z,7.29
2015-07-20T01:36:09.389Z,7.23
2015-07-20T01:36:21.733Z,7.27
2015-07-20T01:36:34.077Z,7.29
2015-07-20T01:36:46.406Z,7.29
2015-07-20T01:36:58.750Z,7.23
2015-07-20T01:37:11.093Z,7.29
2015-07-20T01:37:23.437Z,7.26
2015-07-20T01:37:35.765Z,7.23
2015-07-20T01:37:48.112Z,7.29
2015-07-20T01:38:00.440Z,7.26
2015-07-20T01:38:12.768Z,7.29
2015-07-20T01:38:25.112Z,7.22
2015-07-20T01:38:37.440Z,7.29
2015-07-20T01:38:49.786Z,7.26
2015-07-20T01:39:02.130Z,7.3
2015-07-20T01:39:14.473Z,7.22
2015-07-20T01:39:26.817Z,7.22
2015-07-20T01:39:39.177Z,7.29
2015-07-20T01:39:51.522Z,7.27
2015-07-20T01:40:03.866Z,7.22
2015-07-20T01:40:16.257Z,7.27
2015-07-20T01:40:28.632Z,7.23
2015-07-20T01:40:40.991Z,7.27
2015-07-20T01:40:53.368Z,7.26
2015-07-20T01:41:05.743Z,7.19
2015-07-20T01:41:18.102Z,7.16
2015-07-20T01:41:30.477Z,7.26
2015-07-20T01:41:42.822Z,7.26
2015-07-20T01:41:55.166Z,7.29
2015-07-20T01:42:07.510Z,7.23
2015-07-20T01:42:19.838Z,7.23
2015-07-20T01:42:32.166Z,7.23
2015-07-20T01:42:44.513Z,7.26
2015-07-20T01:42:56.841Z,7.26
2015-07-20T01:43:09.169Z,7.29
2015-07-20T01:43:21.513Z,7.23
2015-07-20T01:43:33.856Z,7.29
2015-07-20T01:43:46.202Z,7.29
2015-07-20T01:43:58.530Z,7.19
2015-07-20T01:44:10.858Z,7.23
2015-07-20T01:44:23.202Z,7.18
2015-07-20T01:44:35.530Z,7.26
2015-07-20T01:44:47.173Z,7.21
2015-07-20T01:45:02.501Z,7.22
2015-07-20T01:45:15.001Z,7.29
2015-07-20T01:45:27.345Z,7.18
2015-07-20T01:45:39.704Z,7.22
2015-07-20T01:45:52.455Z,7.22
2015-07-20T01:46:04.846Z,7.19
2015-07-20T01:46:18.065Z,7.19
2015-07-20T01:46:30.424Z,7.21
2015-07-20T01:46:42.674Z,7.21
2015-07-20T01:46:55.005Z,7.22
2015-07-20T01:47:07.349Z,7.22
2015-07-20T01:47:19.724Z,7.3
2015-07-20T01:47:32.474Z,7.16
2015-07-20T01:47:45.411Z,7.23
2015-07-20T01:47:58.615Z,7.22
2015-07-20T01:48:12.850Z,7.21
2015-07-20T01:48:25.522Z,7.21
2015-07-20T01:48:38.053Z,7.18
2015-07-20T01:48:50.506Z,7.23
2015-07-20T01:49:04.072Z,7.22
2015-07-20T01:49:16.431Z,7.13
2015-07-20T01:49:28.822Z,7.23
2015-07-20T01:49:41.181Z,7.21
2015-07-20T01:49:54.557Z,7.22
2015-07-20T01:50:07.276Z,7.13
2015-07-20T01:50:19.932Z,7.27
2015-07-20T01:50:31.713Z,7.29
2015-07-20T01:50:44.432Z,7.29
2015-07-20T01:50:56.856Z,7.23
2015-07-20T01:51:09.278Z,7.3
2015-07-20T01:51:21.684Z,7.27
2015-07-20T01:51:34.121Z,7.21
2015-07-20T01:51:46.512Z,7.3
2015-07-20T01:51:59.171Z,7.29
2015-07-20T01:52:11.515Z,7.26
2015-07-20T01:52:23.843Z,7.18
2015-07-20T01:52:36.187Z,7.27
2015-07-20T01:52:48.546Z,7.26
2015-07-20T01:53:00.891Z,7.23
2015-07-20T01:53:13.235Z,7.3
2015-07-20T01:53:25.579Z,7.27
2015-07-20T01:53:37.922Z,7.22
2015-07-20T01:53:50.266Z,7.22
2015-07-20T01:54:02.627Z,7.26
2015-07-20T01:54:14.987Z,7.19
2015-07-20T01:54:27.315Z,7.23
2015-07-20T01:54:39.971Z,7.3
2015-07-20T01:54:52.299Z,7.23
2015-07-20T01:55:03.927Z,7.3
2015-07-20T01:55:16.271Z,7.22
2015-07-20T01:55:28.646Z,7.22
2015-07-20T01:55:41.021Z,7.18
2015-07-20T01:55:52.677Z,7.18
2015-07-20T01:56:05.022Z,7.15
2015-07-20T01:56:17.413Z,7.26
2015-07-20T01:56:29.772Z,7.3
2015-07-20T01:56:42.147Z,7.15
2015-07-20T01:56:54.585Z,7.16
2015-07-20T01:57:06.962Z,7.29
2015-07-20T01:57:19.321Z,7.3
2015-07-20T01:57:31.743Z,7.29
2015-07-20T01:57:44.149Z,7.27
2015-07-20T01:57:56.493Z,7.23
2015-07-20T01:58:08.839Z,7.27
2015-07-20T01:58:21.182Z,7.21
2015-07-20T01:58:33.518Z,7.22
2015-07-20T01:58:45.862Z,7.21
2015-07-20T01:58:58.206Z,7.3
2015-07-20T01:59:10.552Z,7.27
2015-07-20T01:59:22.895Z,7.21
2015-07-20T01:59:35.255Z,7.22
2015-07-20T01:59:47.598Z,7.21
2015-07-20T01:59:59.958Z,7.27
2015-07-20T02:00:12.304Z,7.21
2015-07-20T02:00:24.647Z,7.3
2015-07-20T02:00:36.288Z,7.21
2015-07-20T02:00:48.647Z,7.23
2015-07-20T02:01:00.272Z,7.15
2015-07-20T02:01:12.618Z,7.29
2015-07-20T02:01:24.977Z,7.22
2015-07-20T02:01:37.321Z,7.23
2015-07-20T02:01:49.681Z,7.22
2015-07-20T02:02:02.040Z,7.3
2015-07-20T02:02:14.401Z,7.18
2015-07-20T02:02:26.776Z,7.3
2015-07-20T02:02:39.167Z,7.23
2015-07-20T02:02:51.542Z,7.22
2015-07-20T02:03:03.948Z,7.22
2015-07-20T02:03:16.324Z,7.26
2015-07-20T02:03:28.684Z,7.23
2015-07-20T02:03:41.027Z,7.29
2015-07-20T02:03:53.387Z,7.22
2015-07-20T02:04:05.715Z,7.29
2015-07-20T02:04:18.061Z,7.23
2015-07-20T02:04:30.436Z,7.26
2015-07-20T02:04:42.781Z,7.31
2015-07-20T02:04:55.125Z,7.27
2015-07-20T02:05:07.469Z,7.31
2015-07-20T02:05:19.831Z,7.23
2015-07-20T02:05:32.190Z,7.26
2015-07-20T02:05:44.597Z,7.27
2015-07-20T02:05:56.831Z,7.27
2015-07-20T02:06:09.175Z,7.29
2015-07-20T02:06:21.552Z,7.29
2015-07-20T02:06:33.896Z,7.29
2015-07-20T02:06:46.239Z,7.23
2015-07-20T02:06:58.583Z,7.31
2015-07-20T02:07:10.942Z,7.29
2015-07-20T02:07:23.288Z,7.26
2015-07-20T02:07:35.648Z,7.26
2015-07-20T02:07:48.007Z,7.27
2015-07-20T02:08:00.382Z,7.26
2015-07-20T02:08:12.741Z,7.23
2015-07-20T02:08:25.118Z,7.26
2015-07-20T02:08:37.525Z,7.29
2015-07-20T02:08:49.900Z,7.29
2015-07-20T02:09:02.275Z,7.29
2015-07-20T02:09:14.618Z,7.31
2015-07-20T02:09:26.964Z,7.23
2015-07-20T02:09:39.308Z,7.26
2015-07-20T02:09:51.667Z,7.23
2015-07-20T02:10:03.308Z,7.29
2015-07-20T02:10:15.636Z,7.27
2015-07-20T02:10:27.982Z,7.34
2015-07-20T02:10:40.325Z,7.29
2015-07-20T02:10:52.685Z,7.26
2015-07-20T02:11:05.029Z,7.27
2015-07-20T02:11:17.372Z,7.29
2015-07-20T02:11:29.734Z,7.23
2015-07-20T02:11:42.093Z,7.29
2015-07-20T02:11:54.437Z,7.29
2015-07-20T02:12:06.781Z,7.29
2015-07-20T02:12:19.124Z,7.23
2015-07-20T02:12:31.486Z,7.22
2015-07-20T02:12:43.845Z,7.22
2015-07-20T02:12:56.220Z,7.26
2015-07-20T02:13:08.579Z,7.22
2015-07-20T02:13:20.939Z,7.27
2015-07-20T02:13:33.347Z,7.23
2015-07-20T02:13:45.722Z,7.26
2015-07-20T02:13:58.113Z,7.23
2015-07-20T02:14:10.503Z,7.26
2015-07-20T02:14:22.910Z,7.29
2015-07-20T02:14:35.301Z,7.26
2015-07-20T02:14:47.661Z,7.27
2015-07-20T02:15:00.254Z,7.26
2015-07-20T02:15:12.614Z,7.21
2015-07-20T02:15:24.957Z,7.3
2015-07-20T02:15:37.304Z,7.23
2015-07-20T02:15:49.648Z,7.29
2015-07-20T02:16:02.007Z,7.29
2015-07-20T02:16:14.335Z,7.19
2015-07-20T02:16:26.681Z,7.27
2015-07-20T02:16:39.025Z,7.31
2015-07-20T02:16:51.353Z,7.26
2015-07-20T02:17:03.697Z,7.31
2015-07-20T02:17:16.041Z,7.22
2015-07-20T02:17:28.370Z,7.27
2015-07-20T02:17:40.713Z,7.3
2015-07-20T02:17:53.057Z,7.23
2015-07-20T02:18:05.385Z,7.29
2015-07-20T02:18:17.745Z,7.26
2015-07-20T02:18:30.090Z,7.22
2015-07-20T02:18:42.434Z,7.23
2015-07-20T02:18:54.778Z,7.26
2015-07-20T02:19:07.153Z,7.22
2015-07-20T02:19:19.528Z,7.23
2015-07-20T02:19:31.889Z,7.26
2015-07-20T02:19:44.249Z,7.23
2015-07-20T02:19:56.624Z,7.26
2015-07-20T02:20:08.999Z,7.23
2015-07-20T02:20:21.358Z,7.3
2015-07-20T02:20:33.720Z,7.22
2015-07-20T02:20:46.064Z,7.19
2015-07-20T02:20:58.408Z,7.3
2015-07-20T02:21:10.752Z,7.16
2015-07-20T02:21:23.080Z,7.26
2015-07-20T02:21:35.414Z,7.26
2015-07-20T02:21:47.758Z,7.23
2015-07-20T02:22:00.086Z,7.21
2015-07-20T02:22:12.429Z,7.3
2015-07-20T02:22:24.773Z,7.23
2015-07-20T02:22:36.400Z,7.23
2015-07-20T02:22:48.728Z,7.23
2015-07-20T02:23:01.088Z,7.29
2015-07-20T02:23:13.431Z,7.29
2015-07-20T02:23:25.775Z,7.29
2015-07-20T02:23:38.105Z,7.22
2015-07-20T02:23:50.449Z,7.29
2015-07-20T02:24:02.777Z,7.29
2015-07-20T02:24:15.121Z,7.3
2015-07-20T02:24:27.465Z,7.22
2015-07-20T02:24:39.810Z,7.22
2015-07-20T02:24:52.170Z,7.3
2015-07-20T02:25:04.560Z,7.27
2015-07-20T02:25:16.935Z,7.3
2015-07-20T02:25:29.279Z,7.31
2015-07-20T02:25:41.656Z,7.22
2015-07-20T02:25:54.016Z,7.21
2015-07-20T02:26:06.391Z,7.26
2015-07-20T02:26:18.016Z,7.23
2015-07-20T02:26:30.359Z,7.26
2015-07-20T02:26:42.689Z,7.29
2015-07-20T02:26:55.018Z,7.26
2015-07-20T02:27:07.361Z,7.26
2015-07-20T02:27:19.705Z,7.31
2015-07-20T02:27:32.033Z,7.26
2015-07-20T02:27:44.410Z,7.3
2015-07-20T02:27:56.754Z,7.26
2015-07-20T02:28:09.082Z,7.29
2015-07-20T02:28:21.426Z,7.26
2015-07-20T02:28:33.770Z,7.26
2015-07-20T02:28:46.100Z,7.26
2015-07-20T02:28:58.459Z,7.33
2015-07-20T02:29:10.803Z,7.22
2015-07-20T02:29:23.131Z,7.34
2015-07-20T02:29:35.459Z,7.3
2015-07-20T02:29:47.852Z,7.27
2015-07-20T02:30:00.195Z,7.3
2015-07-20T02:30:12.555Z,7.27
2015-07-20T02:30:24.211Z,7.22
2015-07-20T02:30:36.602Z,7.29
2015-07-20T02:30:48.963Z,7.3
2015-07-20T02:31:01.322Z,7.29
2015-07-20T02:31:13.682Z,7.22
2015-07-20T02:31:26.041Z,7.22
2015-07-20T02:31:38.416Z,7.26
2015-07-20T02:31:50.778Z,7.3
2015-07-20T02:32:03.106Z,7.22
2015-07-20T02:32:15.449Z,7.23
2015-07-20T02:32:27.793Z,7.31
2015-07-20T02:32:40.137Z,7.23
2015-07-20T02:32:52.466Z,7.26
2015-07-20T02:33:04.825Z,7.26
2015-07-20T02:33:17.154Z,7.27
2015-07-20T02:33:29.497Z,7.3
2015-07-20T02:33:41.825Z,7.27
2015-07-20T02:33:54.172Z,7.26
2015-07-20T02:34:06.500Z,7.26
2015-07-20T02:34:19.110Z,7.22
2015-07-20T02:34:31.453Z,7.23
2015-07-20T02:34:43.797Z,7.23
2015-07-20T02:34:56.159Z,7.22
2015-07-20T02:35:08.502Z,7.23
2015-07-20T02:35:20.862Z,7.29
2015-07-20T02:35:33.221Z,7.31
2015-07-20T02:35:45.580Z,7.27
2015-07-20T02:35:57.942Z,7.27
2015-07-20T02:36:10.301Z,7.23
2015-07-20T02:36:22.692Z,7.29
2015-07-20T02:36:35.051Z,7.27
2015-07-20T02:36:47.426Z,7.26
2015-07-20T02:36:59.802Z,7.22
2015-07-20T02:37:12.177Z,7.31
2015-07-20T02:37:24.537Z,7.19
2015-07-20T02:37:36.865Z,7.31
2015-07-20T02:37:49.193Z,7.31
2015-07-20T02:38:01.540Z,7.26
2015-07-20T02:38:13.883Z,7.23
2015-07-20T02:38:26.243Z,7.29
2015-07-20T02:38:38.586Z,7.3
2015-07-20T02:38:50.915Z,7.19
2015-07-20T02:39:03.259Z,7.29
2015-07-20T02:39:15.619Z,7.31
2015-07-20T02:39:27.962Z,7.29
2015-07-20T02:39:40.306Z,7.18
2015-07-20T02:39:52.650Z,7.22
2015-07-20T02:40:05.011Z,7.27
2015-07-20T02:40:17.355Z,7.21
2015-07-20T02:40:29.699Z,7.29
2015-07-20T02:40:42.043Z,7.26
2015-07-20T02:40:54.386Z,7.31
2015-07-20T02:41:06.748Z,7.18
2015-07-20T02:41:19.107Z,7.23
2015-07-20T02:41:31.435Z,7.26
2015-07-20T02:41:43.810Z,7.22
2015-07-20T02:41:56.185Z,7.29
2015-07-20T02:42:08.532Z,7.3
2015-07-20T02:42:20.907Z,7.23
2015-07-20T02:42:33.282Z,7.23
2015-07-20T02:42:45.657Z,7.15
2015-07-20T02:42:58.034Z,7.23
2015-07-20T02:43:10.409Z,7.27
2015-07-20T02:43:22.737Z,7.26
2015-07-20T02:43:35.065Z,7.22
2015-07-20T02:43:47.409Z,7.26
2015-07-20T02:43:59.738Z,7.23
2015-07-20T02:44:12.082Z,7.27
2015-07-20T02:44:24.441Z,7.16
2015-07-20T02:44:36.785Z,7.26
2015-07-20T02:44:49.129Z,7.22